createdAt,value
2018-01-12T00:00:08.844Z,101427.74
2018-01-12T00:02:36.364Z,101433.11
2018-01-12T00:05:03.190Z,101435.30
2018-01-12T00:07:30.749Z,101435.38
2018-01-12T00:09:58.823Z,101435.49
2018-01-12T00:12:26.384Z,101439.98
2018-01-12T00:14:53.162Z,101439.86
2018-01-12T00:17:19.997Z,101443.13
2018-01-12T00:19:46.799Z,101448.41
2018-01-12T00:22:13.935Z,101439.75
2018-01-12T00:24:41.536Z,101439.67
2018-01-12T00:27:08.385Z,101440.58
2018-01-12T00:29:35.160Z,101449.48
2018-01-12T00:32:02.504Z,101451.06
2018-01-12T00:34:29.355Z,101449.00
2018-01-12T00:36:57.039Z,101452.38
2018-01-12T00:39:25.352Z,101453.73
2018-01-12T00:41:53.010Z,101447.44
2018-01-12T00:44:19.929Z,101445.36
2018-01-12T00:46:47.589Z,101445.08
2018-01-12T00:49:14.443Z,101445.91
2018-01-12T00:51:41.356Z,101444.23
2018-01-12T00:54:08.244Z,101448.20
2018-01-12T00:56:35.150Z,101448.38
2018-01-12T00:59:02.783Z,101454.73
2018-01-12T01:01:29.693Z,101453.63
2018-01-12T01:03:57.256Z,101456.34
2018-01-12T01:06:24.133Z,101453.83
2018-01-12T01:08:51.670Z,101454.30
2018-01-12T01:11:18.518Z,101454.52
2018-01-12T01:13:45.393Z,101456.91
2018-01-12T01:16:12.164Z,101456.20
2018-01-12T01:18:38.956Z,101462.61
2018-01-12T01:21:06.458Z,101463.92
2018-01-12T01:23:33.245Z,101466.08
2018-01-12T01:26:00.088Z,101462.58
2018-01-12T01:28:26.893Z,101459.67
2018-01-12T01:30:53.714Z,101463.86
2018-01-12T01:33:20.539Z,101475.73
2018-01-12T01:35:48.062Z,101473.11
2018-01-12T01:38:17.196Z,101479.84
2018-01-12T01:40:44.044Z,101483.86
2018-01-12T01:43:10.843Z,101489.42
2018-01-12T01:45:38.361Z,101493.69
2018-01-12T01:48:05.201Z,101504.66
2018-01-12T01:50:32.025Z,101508.93
2018-01-12T01:52:58.838Z,101498.81
2018-01-12T01:55:25.610Z,101504.39
2018-01-12T01:57:52.462Z,101508.27
2018-01-12T02:00:19.244Z,101504.25
2018-01-12T02:02:46.030Z,101509.08
2018-01-12T02:05:12.839Z,101509.55
2018-01-12T02:07:40.361Z,101510.88
2018-01-12T02:10:07.186Z,101508.02
2018-01-12T02:12:33.971Z,101506.25
2018-01-12T02:15:00.751Z,101513.35
2018-01-12T02:17:27.517Z,101511.08
2018-01-12T02:19:55.084Z,101511.98
2018-01-12T02:22:21.906Z,101512.02
2018-01-12T02:24:48.680Z,101508.06
2018-01-12T02:27:15.443Z,101505.41
2018-01-12T02:29:42.200Z,101512.45
2018-01-12T02:32:09.003Z,101511.35
2018-01-12T02:34:35.820Z,101511.02
2018-01-12T02:37:02.580Z,101509.99
2018-01-12T02:39:29.376Z,101512.33
2018-01-12T02:41:56.979Z,101516.00
2018-01-12T02:44:23.731Z,101515.07
2018-01-12T02:46:50.478Z,101518.28
2018-01-12T02:49:18.007Z,101519.75
2018-01-12T02:51:44.816Z,101512.67
2018-01-12T02:54:12.356Z,101519.95
2018-01-12T02:56:39.187Z,101523.98
2018-01-12T02:59:06.945Z,101518.81
2018-01-12T03:01:33.793Z,101521.19
2018-01-12T03:04:01.403Z,101525.43
2018-01-12T03:06:28.292Z,101527.00
2018-01-12T03:08:55.164Z,101533.16
2018-01-12T03:11:22.076Z,101530.28
2018-01-12T03:13:48.892Z,101530.70
2018-01-12T03:16:15.706Z,101541.57
2018-01-12T03:18:42.497Z,101529.85
2018-01-12T03:21:09.285Z,101536.70
2018-01-12T03:23:36.053Z,101537.45
2018-01-12T03:26:03.573Z,101537.66
2018-01-12T03:28:30.333Z,101530.30
2018-01-12T03:30:57.128Z,101530.88
2018-01-12T03:33:23.951Z,101537.11
2018-01-12T03:35:50.740Z,101534.77
2018-01-12T03:38:17.529Z,101539.87
2018-01-12T03:40:45.044Z,101535.61
2018-01-12T03:43:12.600Z,101537.02
2018-01-12T03:45:39.444Z,101537.48
2018-01-12T03:48:06.214Z,101541.81
2018-01-12T03:50:33.717Z,101542.13
2018-01-12T03:53:00.490Z,101537.02
2018-01-12T03:55:27.284Z,101536.88
2018-01-12T03:57:54.085Z,101538.05
2018-01-12T04:00:20.903Z,101543.09
2018-01-12T04:02:47.754Z,101548.00
2018-01-12T04:05:14.511Z,101549.52
2018-01-12T04:07:41.294Z,101543.22
2018-01-12T04:10:08.112Z,101546.28
2018-01-12T04:12:34.882Z,101547.67
2018-01-12T04:15:01.694Z,101553.25
2018-01-12T04:17:28.469Z,101559.22
2018-01-12T04:19:55.262Z,101551.87
2018-01-12T04:22:22.065Z,101551.86
2018-01-12T04:24:49.598Z,101547.36
2018-01-12T04:27:16.416Z,101547.27
2018-01-12T04:29:43.189Z,101550.76
2018-01-12T04:32:10.005Z,101555.19
2018-01-12T04:34:36.793Z,101549.27
2018-01-12T04:37:03.628Z,101546.03
2018-01-12T04:39:31.192Z,101544.01
2018-01-12T04:41:58.028Z,101548.31
2018-01-12T04:44:24.798Z,101552.36
2018-01-12T04:46:51.585Z,101551.77
2018-01-12T04:49:18.357Z,101547.12
2018-01-12T04:51:45.160Z,101538.11
2018-01-12T04:54:11.962Z,101537.61
2018-01-12T04:56:38.772Z,101536.58
2018-01-12T04:59:05.597Z,101531.38
2018-01-12T05:01:33.130Z,101538.20
2018-01-12T05:03:59.963Z,101539.08
2018-01-12T05:06:26.735Z,101538.17
2018-01-12T05:08:53.511Z,101541.11
2018-01-12T05:11:20.295Z,101540.07
2018-01-12T05:13:47.037Z,101534.60
2018-01-12T05:16:13.795Z,101542.95
2018-01-12T05:18:40.725Z,101546.63
2018-01-12T05:21:07.551Z,101548.80
2018-01-12T05:23:35.048Z,101552.73
2018-01-12T05:26:01.803Z,101548.63
2018-01-12T05:28:28.579Z,101549.23
2018-01-12T05:30:55.396Z,101549.73
2018-01-12T05:33:22.217Z,101555.53
2018-01-12T05:35:49.004Z,101555.13
2018-01-12T05:38:15.810Z,101552.64
2018-01-12T05:40:42.636Z,101559.53
2018-01-12T05:43:09.472Z,101562.68
2018-01-12T05:45:36.313Z,101555.44
2018-01-12T05:48:03.093Z,101564.98
2018-01-12T05:50:29.898Z,101568.50
2018-01-12T05:52:57.414Z,101571.70
2018-01-12T05:55:24.233Z,101577.78
2018-01-12T05:57:51.773Z,101576.88
2018-01-12T06:00:19.549Z,101577.31
2018-01-12T06:03:04.570Z,101573.50
2018-01-12T06:05:49.497Z,101574.23
2018-01-12T06:08:16.287Z,101568.94
2018-01-12T06:10:43.097Z,101577.67
2018-01-12T06:13:09.898Z,101581.22
2018-01-12T06:15:36.721Z,101584.21
2018-01-12T06:18:03.541Z,101586.48
2018-01-12T06:20:31.118Z,101578.63
2018-01-12T06:22:58.677Z,101585.47
2018-01-12T06:25:25.490Z,101595.70
2018-01-12T06:27:52.335Z,101596.60
2018-01-12T06:30:19.187Z,101600.59
2018-01-12T06:32:46.510Z,101606.06
2018-01-12T06:35:14.145Z,101603.12
2018-01-12T06:37:41.016Z,101614.38
2018-01-12T06:40:07.813Z,101616.97
2018-01-12T06:42:34.622Z,101612.61
2018-01-12T06:45:01.460Z,101617.88
2018-01-12T06:47:29.424Z,101612.66
2018-01-12T06:49:56.321Z,101611.30
2018-01-12T06:52:23.862Z,101614.93
2018-01-12T06:54:50.666Z,101616.73
2018-01-12T06:57:18.207Z,101622.18
2018-01-12T06:59:45.633Z,101621.00
2018-01-12T07:02:12.460Z,101620.72
2018-01-12T07:04:39.271Z,101618.94
2018-01-12T07:07:06.109Z,101616.32
2018-01-12T07:09:32.952Z,101625.16
2018-01-12T07:12:00.557Z,101617.33
2018-01-12T07:14:27.387Z,101616.05
2018-01-12T07:16:54.933Z,101621.41
2018-01-12T07:19:21.750Z,101619.91
2018-01-12T07:22:06.762Z,101621.07
2018-01-12T07:24:33.547Z,101624.66
2018-01-12T07:27:00.369Z,101629.86
2018-01-12T07:29:27.154Z,101631.11
2018-01-12T07:31:54.701Z,101634.51
2018-01-12T07:34:21.486Z,101630.55
2018-01-12T07:36:48.282Z,101640.70
2018-01-12T07:39:15.842Z,101636.27
2018-01-12T07:41:42.657Z,101632.30
2018-01-12T07:44:09.460Z,101640.07
2018-01-12T07:46:36.258Z,101638.63
2018-01-12T07:49:03.241Z,101636.76
2018-01-12T07:51:30.780Z,101636.32
2018-01-12T07:53:58.317Z,101642.78
2018-01-12T07:56:25.125Z,101646.38
2018-01-12T07:58:52.636Z,101648.33
2018-01-12T08:01:26.112Z,101651.92
2018-01-12T08:03:53.673Z,101648.34
2018-01-12T08:06:20.515Z,101656.48
2018-01-12T08:08:47.391Z,101652.42
2018-01-12T08:11:14.218Z,101661.66
2018-01-12T08:13:41.052Z,101667.69
2018-01-12T08:16:07.888Z,101675.55
2018-01-12T08:18:34.696Z,101676.58
2018-01-12T08:21:01.494Z,101684.16
2018-01-12T08:23:28.346Z,101682.30
2018-01-12T08:25:55.232Z,101682.77
2018-01-12T08:28:22.750Z,101685.22
2018-01-12T08:30:49.558Z,101688.25
2018-01-12T08:33:16.372Z,101683.36
2018-01-12T08:35:43.235Z,101690.66
2018-01-12T08:38:10.735Z,101700.50
2018-01-12T08:40:37.526Z,101703.59
2018-01-12T08:43:04.339Z,101703.29
2018-01-12T08:45:31.159Z,101708.39
2018-01-12T08:47:58.685Z,101707.22
2018-01-12T08:50:27.329Z,101715.11
2018-01-12T08:52:55.104Z,101712.59
2018-01-12T08:55:22.715Z,101718.03
2018-01-12T08:57:49.570Z,101715.61
2018-01-12T09:00:16.402Z,101721.00
2018-01-12T09:02:43.999Z,101726.77
2018-01-12T09:05:11.569Z,101724.27
2018-01-12T09:07:39.180Z,101732.53
2018-01-12T09:10:06.021Z,101727.38
2018-01-12T09:12:33.598Z,101732.97
2018-01-12T09:28:26.142Z,101741.90
2018-01-12T09:30:53.089Z,101752.17
2018-01-12T09:33:19.972Z,101747.80
2018-01-12T09:35:46.852Z,101754.44
2018-01-12T09:38:21.780Z,101752.63
2018-01-12T09:40:48.664Z,101758.03
2018-01-12T09:43:15.521Z,101755.80
2018-01-12T09:45:42.447Z,101755.64
2018-01-12T09:48:25.484Z,101760.88
2018-01-12T09:50:52.312Z,101764.02
2018-01-12T09:53:19.849Z,101766.09
2018-01-12T09:55:46.654Z,101764.30
2018-01-12T09:58:13.497Z,101764.63
2018-01-12T10:00:42.013Z,101763.91
2018-01-12T10:03:08.903Z,101763.27
2018-01-12T10:05:36.573Z,101769.61
2018-01-12T10:08:04.429Z,101772.61
2018-01-12T10:10:32.026Z,101773.14
2018-01-12T10:12:58.884Z,101772.91
2018-01-12T10:15:25.712Z,101775.39
2018-01-12T10:17:55.595Z,101775.52
2018-01-12T10:20:35.404Z,101779.64
2018-01-12T10:23:02.292Z,101773.08
2018-01-12T10:25:29.134Z,101767.32
2018-01-12T10:27:59.068Z,101769.20
2018-01-12T10:44:01.918Z,101768.05
2018-01-12T10:46:56.918Z,101770.02
2018-01-12T10:49:26.587Z,101766.70
2018-01-12T10:52:01.521Z,101764.42
2018-01-12T10:54:28.343Z,101764.52
2018-01-12T10:56:55.908Z,101763.91
2018-01-12T10:59:22.666Z,101762.12
2018-01-12T11:01:49.507Z,101767.83
2018-01-12T11:04:16.329Z,101760.18
2018-01-12T11:06:43.155Z,101761.61
2018-01-12T11:09:10.692Z,101761.74
2018-01-12T11:11:37.491Z,101756.68
2018-01-12T11:14:04.523Z,101755.24
2018-01-12T11:16:31.362Z,101756.05
2018-01-12T11:18:58.915Z,101753.36
2018-01-12T11:21:25.717Z,101757.27
2018-01-12T11:23:52.564Z,101753.42
2018-01-12T11:26:20.096Z,101750.62
2018-01-12T11:28:47.687Z,101751.91
2018-01-12T11:31:15.244Z,101745.62
2018-01-12T11:33:42.104Z,101743.32
2018-01-12T11:36:09.056Z,101736.53
2018-01-12T11:38:35.890Z,101739.94
2018-01-12T11:41:02.691Z,101741.73
2018-01-12T11:43:29.542Z,101738.48
2018-01-12T11:45:56.355Z,101734.64
2018-01-12T11:48:23.187Z,101740.11
2018-01-12T11:50:50.758Z,101741.45
2018-01-12T11:53:18.330Z,101746.19
2018-01-12T11:55:45.228Z,101744.85
2018-01-12T11:58:12.084Z,101743.20
2018-01-12T12:00:38.976Z,101744.82
2018-01-12T12:03:05.851Z,101742.08
2018-01-12T12:05:32.785Z,101743.38
2018-01-12T12:07:59.688Z,101736.77
2018-01-12T12:10:26.588Z,101741.98
2018-01-12T12:12:54.205Z,101744.23
2018-01-12T12:15:21.102Z,101746.28
2018-01-12T12:17:47.940Z,101743.82
2018-01-12T12:20:14.867Z,101742.51
2018-01-12T12:22:41.749Z,101735.14
2018-01-12T12:25:08.682Z,101737.89
2018-01-12T12:27:35.585Z,101735.89
2018-01-12T12:30:02.560Z,101728.09
2018-01-12T12:32:29.439Z,101732.33
2018-01-12T12:34:56.289Z,101729.38
2018-01-12T12:37:23.121Z,101725.94
2018-01-12T12:39:49.988Z,101730.85
2018-01-12T12:42:16.937Z,101723.11
2018-01-12T12:44:43.812Z,101721.67
2018-01-12T12:47:10.712Z,101724.45
2018-01-12T12:49:38.303Z,101720.76
2018-01-12T12:52:05.973Z,101717.80
2018-01-12T12:54:32.851Z,101717.75
2018-01-12T12:57:00.435Z,101714.92
2018-01-12T12:59:27.247Z,101715.31
2018-01-12T13:01:54.468Z,101720.20
2018-01-12T13:04:21.306Z,101723.78
2018-01-12T13:06:48.889Z,101729.16
2018-01-12T13:09:15.755Z,101725.30
2018-01-12T13:11:43.363Z,101727.15
2018-01-12T13:14:10.227Z,101723.27
2018-01-12T13:16:37.095Z,101720.94
2018-01-12T13:19:03.978Z,101725.20
2018-01-12T13:21:30.838Z,101726.11
2018-01-12T13:23:57.728Z,101723.02
2018-01-12T13:26:24.618Z,101721.66
2018-01-12T13:28:51.487Z,101717.76
2018-01-12T13:31:18.393Z,101717.87
2018-01-12T13:33:45.325Z,101721.70
2018-01-12T13:36:12.967Z,101724.22
2018-01-12T13:38:40.601Z,101716.89
2018-01-12T13:41:07.462Z,101723.38
2018-01-12T13:43:34.286Z,101718.97
2018-01-12T13:46:10.181Z,101720.83
2018-01-12T13:48:39.638Z,101717.77
2018-01-12T13:51:07.303Z,101716.66
2018-01-12T13:53:34.145Z,101720.96
2018-01-12T13:56:00.999Z,101719.64
2018-01-12T13:58:28.754Z,101717.86
2018-01-12T14:00:55.655Z,101715.67
2018-01-12T14:03:22.529Z,101728.84
2018-01-12T14:05:49.386Z,101723.11
2018-01-12T14:08:16.234Z,101726.66
2018-01-12T14:10:43.075Z,101725.63
2018-01-12T14:13:09.950Z,101722.50
2018-01-12T14:15:36.774Z,101724.62
2018-01-12T14:18:03.649Z,101725.97
2018-01-12T14:20:31.204Z,101731.03
2018-01-12T14:22:58.100Z,101728.37
2018-01-12T14:25:24.977Z,101734.05
2018-01-12T14:27:51.789Z,101738.83
2018-01-12T14:30:18.724Z,101744.56
2018-01-12T14:32:45.575Z,101750.28
2018-01-12T14:35:12.403Z,101751.56
2018-01-12T14:37:39.258Z,101749.56
2018-01-12T14:40:06.902Z,101745.84
2018-01-12T14:42:33.771Z,101747.48
2018-01-12T14:45:00.669Z,101745.55
2018-01-12T14:47:27.564Z,101745.14
2018-01-12T14:49:54.416Z,101742.05
2018-01-12T14:52:21.362Z,101746.93
2018-01-12T14:54:48.244Z,101745.26
2018-01-12T14:57:16.357Z,101743.50
2018-01-12T14:59:44.001Z,101749.59
2018-01-12T15:02:10.851Z,101746.59
2018-01-12T15:04:37.955Z,101751.06
2018-01-12T15:07:05.129Z,101747.30
2018-01-12T15:09:32.983Z,101751.70
2018-01-12T15:11:59.931Z,101756.55
2018-01-12T15:14:26.774Z,101754.56
2018-01-12T15:16:54.350Z,101754.00
2018-01-12T15:19:21.944Z,101759.34
2018-01-12T15:21:48.817Z,101757.90
2018-01-12T15:24:15.733Z,101755.04
2018-01-12T15:26:43.418Z,101755.30
2018-01-12T15:29:11.011Z,101756.50
2018-01-12T15:31:38.589Z,101757.81
2018-01-12T15:34:06.697Z,101763.49
2018-01-12T15:36:33.626Z,101761.31
2018-01-12T15:39:00.485Z,101759.13
2018-01-12T15:41:27.305Z,101766.20
2018-01-12T15:43:54.875Z,101765.33
2018-01-12T15:46:21.678Z,101773.17
2018-01-12T15:48:48.881Z,101771.55
2018-01-12T15:51:15.703Z,101769.61
2018-01-12T15:53:42.497Z,101770.77
2018-01-12T15:56:10.029Z,101771.45
2018-01-12T15:58:36.872Z,101766.30
2018-01-12T16:01:03.739Z,101769.41
2018-01-12T16:03:30.597Z,101770.73
2018-01-12T16:05:57.378Z,101771.48
2018-01-12T16:08:24.157Z,101772.77
2018-01-12T16:10:50.962Z,101765.96
2018-01-12T16:13:17.721Z,101766.23
2018-01-12T16:15:44.494Z,101765.92
2018-01-12T16:18:11.340Z,101771.52
2018-01-12T16:20:38.125Z,101768.11
2018-01-12T16:23:04.873Z,101768.55
2018-01-12T16:25:31.653Z,101764.64
2018-01-12T16:27:58.449Z,101764.89
2018-01-12T16:30:25.215Z,101763.55
2018-01-12T16:32:52.750Z,101761.05
2018-01-12T16:35:19.539Z,101766.39
2018-01-12T16:37:46.329Z,101770.30
2018-01-12T16:40:13.138Z,101765.45
2018-01-12T16:42:39.953Z,101767.14
2018-01-12T16:45:06.767Z,101772.42
2018-01-12T16:47:34.500Z,101775.45
2018-01-12T16:50:01.380Z,101770.35
2018-01-12T16:52:28.230Z,101766.94
2018-01-12T16:54:55.029Z,101773.55
2018-01-12T16:57:21.814Z,101775.41
2018-01-12T16:59:49.354Z,101778.87
2018-01-12T17:02:16.129Z,101781.52
2018-01-12T17:04:42.937Z,101775.02
2018-01-12T17:07:10.448Z,101778.47
2018-01-12T17:09:38.067Z,101778.87
2018-01-12T17:12:05.633Z,101778.91
2018-01-12T17:14:32.526Z,101785.05
2018-01-12T17:16:59.604Z,101779.77
2018-01-12T17:19:27.196Z,101779.26
2018-01-12T17:21:54.041Z,101777.09
2018-01-12T17:24:20.997Z,101774.86
2018-01-12T17:26:47.770Z,101778.73
2018-01-12T17:29:14.630Z,101779.61
2018-01-12T17:31:41.402Z,101779.17
2018-01-12T17:34:08.232Z,101778.71
2018-01-12T17:36:35.059Z,101778.53
2018-01-12T17:39:01.845Z,101773.47
2018-01-12T17:41:28.640Z,101775.77
2018-01-12T17:43:55.424Z,101774.01
2018-01-12T17:46:22.358Z,101772.20
2018-01-12T17:48:49.189Z,101776.99
2018-01-12T17:51:16.747Z,101773.48
2018-01-12T17:53:43.655Z,101776.99
2018-01-12T17:56:10.448Z,101772.64
2018-01-12T17:58:37.289Z,101769.61
2018-01-12T18:01:04.110Z,101772.23
2018-01-12T18:03:31.688Z,101776.60
2018-01-12T18:05:59.229Z,101773.98
2018-01-12T18:08:33.402Z,101774.86
2018-01-12T18:11:00.324Z,101773.55
2018-01-12T18:13:27.161Z,101777.56
2018-01-12T18:15:54.773Z,101775.81
2018-01-12T18:18:22.351Z,101775.84
2018-01-12T18:20:49.177Z,101773.71
2018-01-12T18:23:16.254Z,101772.84
2018-01-12T18:25:43.139Z,101771.06
2018-01-12T18:28:09.973Z,101778.08
2018-01-12T18:30:36.934Z,101778.14
2018-01-12T18:33:03.788Z,101775.05
2018-01-12T18:35:30.665Z,101778.11
2018-01-12T18:37:57.507Z,101772.48
2018-01-12T18:40:24.441Z,101775.52
2018-01-12T18:42:51.376Z,101779.91
2018-01-12T18:45:18.275Z,101782.09
2018-01-12T18:47:49.828Z,101776.31
2018-01-12T18:50:17.430Z,101785.51
2018-01-12T18:52:44.266Z,101788.56
2018-01-12T18:55:11.883Z,101780.33
2018-01-12T18:57:39.264Z,101782.95
2018-01-12T19:00:06.106Z,101791.73
2018-01-12T19:02:33.035Z,101791.22
2018-01-12T19:05:00.644Z,101786.91
2018-01-12T19:07:27.581Z,101794.27
2018-01-12T19:09:54.444Z,101794.71
2018-01-12T19:12:22.071Z,101798.18
2018-01-12T19:14:50.615Z,101796.02
2018-01-12T19:17:18.915Z,101798.20
2018-01-12T19:19:45.991Z,101798.27
2018-01-12T19:22:14.250Z,101799.98
2018-01-12T19:24:42.358Z,101798.56
2018-01-12T19:27:09.823Z,101799.52
2018-01-12T19:29:37.362Z,101796.02
2018-01-12T19:32:06.062Z,101795.17
2018-01-12T19:34:35.435Z,101798.07
2018-01-12T19:37:04.154Z,101800.34
2018-01-12T19:39:32.818Z,101796.81
2018-01-12T19:42:00.974Z,101796.42
2018-01-12T19:44:28.932Z,101806.06
2018-01-12T19:46:57.502Z,101799.95
2018-01-12T19:49:26.318Z,101807.41
2018-01-12T19:51:54.797Z,101807.35
2018-01-12T19:54:26.055Z,101817.92
2018-01-12T19:56:55.656Z,101810.89
2018-01-12T19:59:24.540Z,101818.77
2018-01-12T20:01:53.387Z,101819.64
2018-01-12T20:04:21.857Z,101820.53
2018-01-12T20:06:52.557Z,101815.70
2018-01-12T20:09:21.292Z,101820.07
2018-01-12T20:11:49.954Z,101816.58
2018-01-12T20:14:18.883Z,101820.07
2018-01-12T20:16:47.842Z,101824.03
2018-01-12T20:19:16.618Z,101822.28
2018-01-12T20:21:45.878Z,101830.12
2018-01-12T20:24:14.802Z,101829.70
2018-01-12T20:26:43.789Z,101830.56
2018-01-12T20:40:23.442Z,101828.68
2018-01-12T20:42:53.107Z,101838.00
2018-01-12T20:45:21.951Z,101836.94
2018-01-12T20:47:51.576Z,101840.34
2018-01-12T20:50:21.117Z,101841.16
2018-01-12T20:52:50.067Z,101835.48
2018-01-12T20:55:19.010Z,101840.08
2018-01-12T20:57:53.240Z,101838.77
2018-01-12T21:00:23.105Z,101832.78
2018-01-12T21:02:51.659Z,101827.10
2018-01-12T21:05:20.541Z,101828.86
2018-01-12T21:07:49.325Z,101831.22
2018-01-12T21:10:18.005Z,101836.44
2018-01-12T21:12:47.799Z,101836.81
2018-01-12T21:15:16.599Z,101834.19
2018-01-12T21:17:46.112Z,101835.12
2018-01-12T21:20:15.761Z,101835.06
2018-01-12T21:22:44.548Z,101831.13
2018-01-12T21:25:14.341Z,101827.87
2018-01-12T21:27:43.369Z,101827.08
2018-01-12T21:30:12.178Z,101822.79
2018-01-12T21:32:40.719Z,101824.66
2018-01-12T21:35:11.503Z,101826.67
2018-01-12T21:37:39.490Z,101828.77
2018-01-12T21:40:08.404Z,101827.86
2018-01-12T21:42:37.114Z,101826.37
2018-01-12T21:45:05.969Z,101827.38
2018-01-12T21:47:34.948Z,101825.27
2018-01-12T21:50:03.942Z,101824.08
2018-01-12T21:52:33.572Z,101821.07
2018-01-12T21:55:02.356Z,101825.63
2018-01-12T21:57:31.808Z,101824.38
2018-01-12T22:00:00.523Z,101824.23
2018-01-12T22:02:28.562Z,101827.61
2018-01-12T22:04:56.082Z,101822.80
2018-01-12T22:07:25.690Z,101824.45
2018-01-12T22:09:54.862Z,101819.42
2018-01-12T22:12:22.732Z,101821.89
2018-01-12T22:14:49.916Z,101818.86
2018-01-12T22:17:17.525Z,101824.86
2018-01-12T22:19:44.500Z,101819.36
2018-01-12T22:22:11.606Z,101818.72
2018-01-12T22:24:38.650Z,101825.54
2018-01-12T22:27:05.474Z,101824.70
2018-01-12T22:29:32.327Z,101821.05
2018-01-12T22:31:59.169Z,101823.93
2018-01-12T22:34:27.075Z,101828.69
2018-01-12T22:36:54.522Z,101828.45
2018-01-12T22:39:22.969Z,101825.00
2018-01-12T22:41:50.792Z,101829.17
2018-01-12T22:44:18.499Z,101828.02
2018-01-12T22:46:46.268Z,101831.89
2018-01-12T22:49:14.063Z,101832.88
2018-01-12T22:51:41.990Z,101829.77
2018-01-12T22:54:09.256Z,101831.13
2018-01-12T22:56:37.023Z,101827.81
2018-01-12T22:59:04.838Z,101831.91
2018-01-12T23:01:33.423Z,101822.30
2018-01-12T23:04:01.156Z,101820.70
2018-01-12T23:06:28.949Z,101819.48
2018-01-12T23:08:56.735Z,101819.45
2018-01-12T23:11:24.503Z,101815.89
2018-01-12T23:13:52.057Z,101819.83
2018-01-12T23:16:18.871Z,101819.83
2018-01-12T23:18:45.692Z,101829.06
2018-01-12T23:21:12.520Z,101822.51
2018-01-12T23:23:39.298Z,101820.67
2018-01-12T23:26:06.111Z,101820.17
2018-01-12T23:28:32.938Z,101821.89
2018-01-12T23:30:59.817Z,101820.23
2018-01-12T23:33:27.364Z,101818.95
2018-01-12T23:35:54.189Z,101815.66
2018-01-12T23:38:20.966Z,101809.68
2018-01-12T23:40:47.759Z,101812.83
2018-01-12T23:43:15.378Z,101806.73
2018-01-12T23:45:42.232Z,101804.98
2018-01-12T23:48:09.089Z,101809.78
2018-01-12T23:50:35.912Z,101803.64
2018-01-12T23:53:02.842Z,101803.21
2018-01-12T23:55:29.659Z,101807.16
2018-01-12T23:57:56.570Z,101802.82
